createdAt,value
2023-06-19T00:01:24.237Z,51.10
2023-06-19T00:03:52.271Z,51.30
2023-06-19T00:06:20.652Z,51.00
2023-06-19T00:08:48.690Z,51.10
2023-06-19T00:11:17.138Z,51.50
2023-06-19T00:13:46.587Z,50.90
2023-06-19T00:16:14.755Z,51.10
2023-06-19T00:18:42.871Z,51.00
2023-06-19T00:21:13.572Z,51.00
2023-06-19T00:23:41.787Z,51.20
2023-06-19T00:26:15.824Z,51.30
2023-06-19T00:28:45.578Z,51.50
2023-06-19T00:31:18.129Z,51.40
2023-06-19T00:33:47.665Z,51.60
2023-06-19T00:36:21.402Z,51.70
2023-06-19T00:38:52.592Z,51.80
2023-06-19T00:41:32.672Z,51.80
2023-06-19T00:44:00.716Z,51.40
2023-06-19T00:46:32.941Z,50.90
2023-06-19T00:49:11.809Z,50.50
2023-06-19T00:51:54.808Z,50.10
2023-06-19T00:54:38.485Z,50.00
2023-06-19T00:57:12.562Z,49.80
2023-06-19T00:59:40.694Z,49.90
2023-06-19T01:02:12.450Z,49.30
2023-06-19T01:04:43.004Z,50.00
2023-06-19T01:07:17.772Z,49.60
2023-06-19T01:09:59.289Z,49.10
2023-06-19T01:12:38.624Z,49.10
2023-06-19T01:15:12.334Z,49.30
2023-06-19T01:17:44.791Z,49.40
2023-06-19T01:20:25.000Z,49.30
2023-06-19T01:22:57.986Z,49.40
2023-06-19T01:25:31.253Z,49.80
2023-06-19T01:28:03.938Z,49.80
2023-06-19T01:30:37.274Z,49.90
2023-06-19T01:33:28.984Z,50.10
2023-06-19T01:36:08.718Z,50.20
2023-06-19T01:38:42.239Z,50.30
2023-06-19T01:41:12.348Z,49.80
2023-06-19T01:43:41.460Z,50.10
2023-06-19T01:46:15.531Z,50.20
2023-06-19T01:48:49.420Z,50.20
2023-06-19T01:51:20.489Z,50.30
2023-06-19T01:53:54.361Z,50.40
2023-06-19T01:56:28.534Z,50.90
2023-06-19T01:58:56.748Z,51.30
2023-06-19T02:01:32.195Z,52.10
2023-06-19T02:04:02.794Z,52.70
2023-06-19T02:06:37.406Z,52.70
2023-06-19T02:09:09.304Z,53.40
2023-06-19T02:11:49.404Z,53.90
2023-06-19T02:14:24.291Z,53.80
2023-06-19T02:17:01.020Z,53.70
2023-06-19T02:19:34.188Z,53.70
2023-06-19T02:22:04.053Z,53.90
2023-06-19T02:24:46.482Z,53.10
2023-06-19T02:27:27.898Z,52.80
2023-06-19T02:29:59.076Z,52.70
2023-06-19T02:32:32.474Z,52.20
2023-06-19T02:35:00.615Z,52.00
2023-06-19T02:37:33.763Z,52.50
2023-06-19T02:40:08.170Z,52.50
2023-06-19T02:42:36.304Z,52.40
2023-06-19T02:45:07.894Z,53.60
2023-06-19T02:47:38.565Z,53.60
2023-06-19T02:50:09.407Z,53.70
2023-06-19T02:52:45.127Z,53.80
2023-06-19T02:55:21.586Z,53.60
2023-06-19T02:57:51.558Z,53.60
2023-06-19T03:00:19.924Z,52.40
2023-06-19T03:02:56.149Z,52.30
2023-06-19T03:05:30.331Z,51.90
2023-06-19T03:08:04.302Z,52.10
2023-06-19T03:10:43.493Z,52.00
2023-06-19T03:13:13.871Z,51.90
2023-06-19T03:15:43.774Z,52.20
2023-06-19T03:18:14.019Z,52.10
2023-06-19T03:20:44.461Z,52.00
2023-06-19T03:23:13.503Z,52.20
2023-06-19T03:25:48.756Z,52.40
2023-06-19T03:28:18.723Z,52.60
2023-06-19T03:30:54.433Z,52.90
2023-06-19T03:33:25.066Z,52.80
2023-06-19T03:35:58.255Z,52.90
2023-06-19T03:38:32.178Z,52.90
2023-06-19T03:41:04.452Z,53.00
2023-06-19T03:43:37.211Z,53.30
2023-06-19T03:46:12.804Z,53.40
2023-06-19T03:48:44.028Z,53.10
2023-06-19T03:51:16.802Z,52.70
2023-06-19T03:53:49.192Z,52.20
2023-06-19T03:56:23.017Z,52.40
2023-06-19T03:58:58.567Z,52.80
2023-06-19T04:01:29.144Z,53.20
2023-06-19T04:04:05.425Z,53.50
2023-06-19T04:06:38.373Z,53.90
2023-06-19T04:09:07.528Z,54.00
2023-06-19T04:11:39.195Z,54.30
2023-06-19T04:14:09.390Z,54.60
2023-06-19T04:16:42.272Z,55.00
2023-06-19T04:19:12.534Z,55.30
2023-06-19T04:21:43.026Z,55.50
2023-06-19T04:24:14.716Z,56.00
2023-06-19T04:26:44.377Z,56.20
2023-06-19T04:29:21.612Z,56.40
2023-06-19T04:31:59.813Z,56.50
2023-06-19T04:34:33.544Z,56.50
2023-06-19T04:37:03.134Z,56.70
2023-06-19T04:39:33.827Z,56.90
2023-06-19T04:42:10.032Z,57.10
2023-06-19T04:48:37.885Z,56.20
2023-06-19T04:51:13.515Z,53.90
2023-06-19T04:53:43.765Z,51.90
2023-06-19T04:56:14.532Z,50.70
2023-06-19T04:58:48.384Z,51.60
2023-06-19T05:05:06.415Z,53.90
2023-06-19T05:07:47.762Z,54.60
2023-06-19T05:10:22.836Z,54.90
2023-06-19T05:12:58.919Z,54.50
2023-06-19T05:18:44.407Z,53.90
2023-06-19T05:21:13.126Z,54.20
2023-06-19T05:23:41.750Z,54.00
2023-06-19T05:26:19.848Z,54.10
2023-06-19T05:28:48.760Z,54.30
2023-06-19T05:31:42.152Z,54.50
2023-06-19T05:34:21.189Z,54.10
2023-06-19T05:37:09.178Z,54.10
2023-06-19T05:39:46.936Z,53.20
2023-06-19T05:42:14.962Z,52.00
2023-06-19T05:44:51.242Z,48.20
2023-06-19T05:47:36.270Z,46.70
2023-06-19T05:50:18.525Z,46.70
2023-06-19T05:53:52.828Z,47.00
2023-06-19T05:56:20.918Z,46.20
2023-06-19T05:58:48.918Z,45.90
2023-06-19T06:01:19.087Z,45.30
2023-06-19T06:03:48.605Z,43.50
2023-06-19T06:06:16.574Z,42.60
2023-06-19T06:08:44.616Z,42.50
2023-06-19T06:11:13.687Z,43.30
2023-06-19T06:13:41.746Z,44.90
2023-06-19T06:16:09.878Z,46.60
2023-06-19T06:18:37.945Z,48.10
2023-06-19T06:21:07.304Z,49.10
2023-06-19T06:23:35.325Z,50.40
2023-06-19T06:26:04.063Z,51.60
2023-06-19T06:28:32.880Z,52.20
2023-06-19T06:35:05.441Z,53.70
2023-06-19T06:46:16.735Z,56.30
2023-06-19T06:48:56.355Z,57.30
2023-06-19T06:51:38.050Z,58.20
2023-06-19T06:54:41.003Z,59.00
2023-06-19T06:57:45.059Z,59.30
2023-06-19T07:00:29.639Z,59.50
2023-06-19T07:03:40.470Z,59.50
2023-06-19T07:06:27.710Z,59.20
2023-06-19T07:09:10.140Z,58.10
2023-06-19T07:11:38.258Z,57.40
2023-06-19T07:14:06.417Z,56.90
2023-06-19T07:16:34.577Z,56.70
2023-06-19T07:19:03.994Z,56.60
2023-06-19T07:21:33.144Z,56.40
2023-06-19T07:24:01.997Z,56.60
2023-06-19T07:26:30.083Z,56.40
2023-06-19T07:28:58.099Z,56.50
2023-06-19T07:31:26.091Z,56.40
2023-06-19T07:33:54.083Z,56.40
2023-06-19T07:36:23.370Z,56.10
2023-06-19T07:38:51.304Z,55.90
2023-06-19T07:41:19.336Z,55.30
2023-06-19T07:43:47.243Z,54.90
2023-06-19T07:46:16.382Z,54.60
2023-06-19T07:48:44.546Z,54.90
2023-06-19T07:51:12.554Z,55.10
2023-06-19T07:53:41.949Z,55.70
2023-06-19T07:56:10.335Z,54.90
2023-06-19T07:58:38.263Z,54.80
2023-06-19T08:01:06.258Z,54.80
2023-06-19T08:03:34.906Z,54.60
2023-06-19T08:06:03.026Z,54.40
2023-06-19T08:08:30.981Z,53.50
2023-06-19T08:11:00.345Z,52.80
2023-06-19T08:13:28.309Z,52.90
2023-06-19T08:15:56.302Z,53.00
2023-06-19T08:18:24.233Z,53.20
2023-06-19T08:20:52.231Z,53.50
2023-06-19T08:23:20.231Z,53.80
2023-06-19T08:25:48.853Z,54.00
2023-06-19T08:28:18.604Z,53.90
2023-06-19T08:31:28.719Z,53.00
2023-06-19T08:33:56.936Z,51.90
2023-06-19T08:36:25.322Z,51.40
2023-06-19T08:38:54.044Z,51.40
2023-06-19T08:41:22.401Z,51.70
2023-06-19T08:43:51.894Z,51.00
2023-06-19T08:46:21.240Z,49.60
2023-06-19T08:48:49.262Z,48.70
2023-06-19T08:51:17.184Z,48.00
2023-06-19T08:53:51.622Z,48.00
2023-06-19T08:56:19.679Z,48.50
2023-06-19T08:58:48.005Z,48.80
2023-06-19T09:01:20.366Z,49.50
2023-06-19T09:03:53.385Z,50.40
2023-06-19T09:06:22.296Z,50.00
2023-06-19T09:09:00.343Z,47.90
2023-06-19T09:11:28.575Z,45.50
2023-06-19T09:13:59.505Z,43.20
2023-06-19T09:16:39.875Z,41.90
2023-06-19T09:19:07.897Z,42.40
2023-06-19T09:21:38.525Z,42.20
2023-06-19T09:24:08.753Z,41.90
2023-06-19T09:26:37.113Z,40.60
2023-06-19T09:29:19.487Z,38.40
2023-06-19T09:31:50.481Z,36.20
2023-06-19T09:34:18.489Z,34.70
2023-06-19T09:36:48.177Z,32.50
2023-06-19T09:39:18.174Z,31.10
2023-06-19T09:41:53.115Z,30.30
2023-06-19T09:44:24.044Z,29.90
2023-06-19T09:46:56.174Z,29.80
2023-06-19T09:49:42.944Z,29.80
2023-06-19T09:52:11.086Z,29.90
2023-06-19T09:54:40.328Z,30.20
2023-06-19T09:57:09.376Z,30.00
2023-06-19T09:59:37.954Z,30.20
2023-06-19T10:02:08.514Z,30.00
2023-06-19T10:04:46.316Z,30.20
2023-06-19T10:07:21.871Z,30.70
2023-06-19T10:10:00.992Z,30.40
2023-06-19T10:13:14.822Z,30.20
2023-06-19T10:15:44.586Z,30.10
2023-06-19T10:18:21.774Z,30.60
2023-06-19T10:20:49.842Z,30.20
2023-06-19T10:23:20.533Z,31.30
2023-06-19T10:26:27.067Z,32.20
2023-06-19T10:28:55.644Z,32.30
2023-06-19T10:31:24.156Z,32.10
2023-06-19T10:33:53.521Z,32.00
2023-06-19T10:36:23.980Z,33.80
2023-06-19T10:38:52.134Z,34.50
2023-06-19T10:41:21.008Z,33.50
2023-06-19T10:43:59.235Z,33.20
2023-06-19T10:46:31.621Z,32.80
2023-06-19T10:49:02.839Z,32.20
2023-06-19T10:51:31.080Z,32.00
2023-06-19T10:53:59.659Z,32.30
2023-06-19T10:56:27.945Z,33.30
2023-06-19T10:59:03.181Z,34.10
2023-06-19T11:01:36.525Z,34.50
2023-06-19T11:04:10.825Z,35.10
2023-06-19T11:06:39.722Z,35.50
2023-06-19T11:09:09.146Z,36.10
2023-06-19T11:11:41.558Z,37.10
2023-06-19T11:14:49.864Z,37.90
2023-06-19T11:17:19.581Z,39.40
2023-06-19T11:19:49.005Z,39.20
2023-06-19T11:22:17.140Z,39.10
2023-06-19T11:24:49.519Z,38.60
2023-06-19T11:27:25.660Z,38.70
2023-06-19T11:30:00.630Z,39.30
2023-06-19T11:33:09.702Z,39.90
2023-06-19T11:35:40.402Z,39.50
2023-06-19T11:38:09.483Z,39.30
2023-06-19T11:40:43.332Z,39.50
2023-06-19T11:43:11.270Z,39.20
2023-06-19T11:45:48.557Z,39.00
2023-06-19T11:48:16.710Z,38.40
2023-06-19T11:50:46.055Z,38.70
2023-06-19T11:53:20.544Z,38.60
2023-06-19T11:55:48.677Z,38.50
2023-06-19T11:58:17.324Z,39.20
2023-06-19T12:00:45.749Z,40.40
2023-06-19T12:03:22.865Z,41.40
2023-06-19T12:05:52.448Z,42.50
2023-06-19T12:08:20.467Z,42.70
2023-06-19T12:10:48.594Z,42.80
2023-06-19T12:13:16.578Z,42.40
2023-06-19T12:15:44.845Z,42.70
2023-06-19T12:18:13.815Z,42.90
2023-06-19T12:20:41.888Z,42.60
2023-06-19T12:23:11.240Z,43.10
2023-06-19T12:25:39.833Z,42.80
2023-06-19T12:28:09.273Z,42.70
2023-06-19T12:30:38.342Z,42.40
2023-06-19T12:33:07.359Z,42.50
2023-06-19T12:35:35.585Z,42.40
2023-06-19T12:38:04.725Z,42.50
2023-06-19T12:40:36.141Z,42.90
2023-06-19T12:43:04.709Z,42.60
2023-06-19T12:45:38.809Z,42.50
2023-06-19T12:48:07.430Z,42.50
2023-06-19T12:50:35.493Z,42.80
2023-06-19T12:53:03.806Z,43.50
2023-06-19T12:55:31.917Z,44.30
2023-06-19T12:58:01.348Z,44.30
2023-06-19T13:00:29.348Z,45.20
2023-06-19T13:02:57.478Z,46.00
2023-06-19T13:05:25.616Z,45.70
2023-06-19T13:08:02.548Z,45.90
2023-06-19T13:10:30.816Z,44.80
2023-06-19T13:12:59.571Z,44.80
2023-06-19T13:15:29.417Z,44.40
2023-06-19T13:17:57.651Z,44.40
2023-06-19T13:20:25.834Z,44.40
2023-06-19T13:22:54.442Z,44.50
2023-06-19T13:25:22.833Z,44.50
2023-06-19T13:27:50.825Z,45.40
2023-06-19T13:30:18.890Z,45.30
2023-06-19T13:32:48.381Z,45.70
2023-06-19T13:35:16.492Z,45.50
2023-06-19T13:37:44.481Z,46.20
2023-06-19T13:40:13.064Z,48.40
2023-06-19T13:42:53.037Z,49.60
2023-06-19T13:45:21.185Z,49.80
2023-06-19T13:47:50.544Z,49.70
2023-06-19T13:50:19.619Z,49.80
2023-06-19T13:55:30.811Z,50.40
2023-06-19T13:58:00.766Z,49.70
2023-06-19T14:00:28.837Z,49.00
2023-06-19T14:02:58.261Z,48.90
2023-06-19T14:05:27.655Z,49.20
2023-06-19T14:08:01.978Z,49.00
2023-06-19T14:10:31.079Z,49.00
2023-06-19T14:12:59.150Z,49.20
2023-06-19T14:15:27.212Z,49.40
2023-06-19T14:17:55.279Z,49.40
2023-06-19T14:20:24.872Z,49.20
2023-06-19T14:22:53.255Z,50.00
2023-06-19T14:25:21.254Z,51.20
2023-06-19T14:27:49.366Z,51.60
2023-06-19T14:30:17.759Z,51.80
2023-06-19T14:32:45.871Z,53.40
2023-06-19T14:35:13.926Z,54.10
2023-06-19T14:37:43.973Z,54.50
2023-06-19T14:40:13.003Z,57.40
2023-06-19T14:42:41.537Z,58.30
2023-06-19T14:45:10.510Z,76.70
2023-06-19T14:47:38.547Z,76.30
2023-06-19T14:50:07.879Z,81.30
2023-06-19T14:52:35.980Z,88.40
2023-06-19T14:55:06.418Z,87.10
2023-06-19T14:57:34.523Z,91.00
2023-06-19T15:00:03.025Z,99.90
2023-06-19T15:02:31.399Z,99.90
2023-06-19T15:05:06.311Z,99.90
2023-06-19T15:07:35.159Z,99.90
2023-06-19T15:10:04.264Z,99.90
2023-06-19T15:12:35.708Z,99.90
2023-06-19T15:15:03.870Z,99.90
2023-06-19T15:17:32.208Z,99.90
2023-06-19T15:20:00.479Z,99.90
2023-06-19T15:22:29.011Z,99.90
2023-06-19T15:28:39.593Z,99.90
2023-06-19T15:31:08.021Z,99.90
2023-06-19T15:33:36.121Z,99.90
2023-06-19T15:36:04.284Z,99.90
2023-06-19T15:38:48.552Z,99.90
2023-06-19T15:41:16.592Z,99.90
2023-06-19T15:43:45.986Z,99.90
2023-06-19T15:46:16.586Z,99.90
2023-06-19T15:48:44.820Z,99.90
2023-06-19T15:51:50.341Z,99.90
2023-06-19T15:54:18.812Z,99.90
2023-06-19T15:57:06.894Z,99.90
2023-06-19T15:59:36.737Z,99.90
2023-06-19T16:02:05.251Z,99.90
2023-06-19T16:04:33.432Z,99.90
2023-06-19T16:07:02.284Z,99.90
2023-06-19T16:09:32.865Z,99.90
2023-06-19T16:12:08.718Z,99.90
2023-06-19T16:14:38.223Z,99.90
2023-06-19T16:17:06.319Z,99.90
2023-06-19T16:19:35.928Z,99.90
2023-06-19T16:22:04.568Z,99.90
2023-06-19T16:24:33.054Z,99.90
2023-06-19T16:27:01.177Z,99.90
2023-06-19T16:29:29.227Z,99.90
2023-06-19T16:32:08.886Z,99.90
2023-06-19T16:34:38.418Z,99.90
2023-06-19T16:37:07.109Z,99.90
2023-06-19T16:39:35.228Z,99.90
2023-06-19T16:42:03.908Z,99.90
2023-06-19T16:44:31.939Z,99.90
2023-06-19T16:47:01.326Z,99.90
2023-06-19T16:49:29.268Z,99.90
2023-06-19T16:51:57.289Z,99.90
2023-06-19T16:54:25.329Z,99.90
2023-06-19T16:56:53.337Z,99.90
2023-06-19T16:59:21.668Z,99.90
2023-06-19T17:01:49.853Z,99.90
2023-06-19T17:04:19.179Z,99.90
2023-06-19T17:06:47.733Z,99.90
2023-06-19T17:09:16.097Z,99.90
2023-06-19T17:11:44.312Z,99.90
2023-06-19T17:14:12.377Z,99.90
2023-06-19T17:16:40.824Z,99.90
2023-06-19T17:19:11.568Z,99.90
2023-06-19T17:21:41.418Z,99.90
2023-06-19T17:24:12.920Z,99.90
2023-06-19T17:26:41.754Z,99.90
2023-06-19T17:29:09.830Z,99.90
2023-06-19T17:31:38.760Z,99.90
2023-06-19T17:34:07.334Z,99.90
2023-06-19T17:36:35.405Z,99.90
2023-06-19T17:39:05.017Z,99.90
2023-06-19T17:41:34.975Z,99.90
2023-06-19T17:44:04.928Z,99.90
2023-06-19T17:46:33.036Z,99.90
2023-06-19T17:49:01.178Z,99.90
2023-06-19T17:51:29.324Z,99.90
2023-06-19T17:53:57.385Z,99.90
2023-06-19T17:56:26.963Z,99.90
2023-06-19T17:58:55.111Z,99.90
2023-06-19T18:01:25.925Z,99.90
2023-06-19T18:03:54.270Z,99.90
2023-06-19T18:06:22.670Z,99.90
2023-06-19T18:08:50.830Z,99.90
2023-06-19T18:11:18.947Z,99.90
2023-06-19T18:13:48.216Z,99.90
2023-06-19T18:16:16.345Z,99.90
2023-06-19T18:18:44.337Z,99.90
2023-06-19T18:21:12.333Z,99.90
2023-06-19T18:23:40.465Z,99.90
2023-06-19T18:26:10.847Z,99.90
2023-06-19T18:28:39.118Z,99.90
2023-06-19T18:31:08.499Z,99.90
2023-06-19T18:33:36.584Z,99.90
2023-06-19T18:36:05.803Z,99.90
2023-06-19T18:38:36.771Z,99.90
2023-06-19T18:41:04.931Z,99.90
2023-06-19T18:43:34.999Z,99.90
2023-06-19T18:46:04.102Z,99.90
2023-06-19T18:48:33.730Z,99.90
2023-06-19T18:51:01.764Z,99.90
2023-06-19T18:53:29.906Z,99.90
2023-06-19T18:55:58.823Z,99.90
2023-06-19T18:58:26.745Z,99.90
2023-06-19T19:00:54.810Z,99.90
2023-06-19T19:03:23.000Z,99.90
2023-06-19T19:05:52.708Z,99.90
2023-06-19T19:08:21.290Z,99.90
2023-06-19T19:10:51.625Z,99.90
2023-06-19T19:13:19.643Z,99.90
2023-06-19T19:15:47.605Z,99.90
2023-06-19T19:18:15.749Z,99.90
2023-06-19T19:20:43.996Z,99.90
2023-06-19T19:23:13.609Z,99.90
2023-06-19T19:25:41.727Z,99.90
2023-06-19T19:28:15.351Z,99.90
2023-06-19T19:30:46.029Z,99.90
2023-06-19T19:33:14.671Z,99.90
2023-06-19T19:35:42.642Z,99.90
2023-06-19T19:38:10.758Z,99.90
2023-06-19T19:40:40.101Z,99.90
2023-06-19T19:43:08.251Z,99.90
2023-06-19T19:45:36.196Z,99.90
2023-06-19T19:48:04.255Z,99.90
2023-06-19T19:50:33.010Z,99.90
2023-06-19T19:53:01.647Z,99.90
2023-06-19T19:55:29.688Z,99.90
2023-06-19T19:58:01.963Z,99.90
2023-06-19T20:00:30.339Z,99.90
2023-06-19T20:02:58.360Z,99.90
2023-06-19T20:05:26.319Z,99.90
2023-06-19T20:07:54.254Z,99.90
2023-06-19T20:10:22.545Z,99.90
2023-06-19T20:12:50.764Z,99.90
2023-06-19T20:15:20.460Z,99.90
2023-06-19T20:17:48.552Z,99.90
2023-06-19T20:20:16.593Z,99.90
2023-06-19T20:22:44.799Z,99.90
2023-06-19T20:25:14.700Z,99.90
2023-06-19T20:27:49.606Z,99.90
2023-06-19T20:30:28.163Z,99.90
2023-06-19T20:32:56.191Z,99.90
2023-06-19T20:35:24.222Z,99.90
2023-06-19T20:37:52.136Z,99.90
2023-06-19T20:40:20.177Z,99.90
2023-06-19T20:42:48.219Z,99.90
2023-06-19T20:45:16.579Z,99.90
2023-06-19T20:47:46.208Z,99.90
2023-06-19T20:50:15.316Z,99.90
2023-06-19T20:52:43.228Z,99.90
2023-06-19T20:55:12.478Z,99.90
2023-06-19T20:57:40.481Z,99.90
2023-06-19T21:00:10.777Z,99.90
2023-06-19T21:02:39.007Z,99.90
2023-06-19T21:05:09.862Z,99.90
2023-06-19T21:07:37.866Z,99.90
2023-06-19T21:10:06.794Z,99.90
2023-06-19T21:12:34.735Z,99.90
2023-06-19T21:15:02.764Z,99.90
2023-06-19T21:17:30.890Z,99.90
2023-06-19T21:19:59.062Z,99.90
2023-06-19T21:22:28.331Z,99.90
2023-06-19T21:24:56.237Z,99.90
2023-06-19T21:27:24.166Z,99.90
2023-06-19T21:29:52.131Z,99.90
2023-06-19T21:32:20.027Z,99.90
2023-06-19T21:34:48.128Z,99.90
2023-06-19T21:37:16.269Z,99.90
2023-06-19T21:39:46.043Z,99.90
2023-06-19T21:42:13.999Z,99.90
2023-06-19T21:44:44.115Z,99.90
2023-06-19T21:47:12.000Z,99.90
2023-06-19T21:49:40.876Z,99.90
2023-06-19T21:52:09.374Z,99.90
2023-06-19T21:54:37.363Z,99.90
2023-06-19T21:57:07.444Z,99.90
2023-06-19T21:59:35.353Z,99.90
2023-06-19T22:02:03.311Z,99.90
2023-06-19T22:04:31.293Z,99.90
2023-06-19T22:06:59.193Z,99.90
2023-06-19T22:09:27.127Z,99.90
2023-06-19T22:11:55.302Z,99.90
2023-06-19T22:14:24.596Z,99.90
2023-06-19T22:16:52.550Z,99.90
2023-06-19T22:19:20.435Z,99.90
2023-06-19T22:21:49.531Z,99.90
2023-06-19T22:24:17.568Z,99.90
2023-06-19T22:26:45.601Z,99.90
2023-06-19T22:29:14.311Z,99.90
2023-06-19T22:31:43.720Z,99.90
2023-06-19T22:34:11.687Z,99.90
2023-06-19T22:36:39.932Z,99.90
2023-06-19T22:39:08.755Z,99.90
2023-06-19T22:41:36.798Z,99.90
2023-06-19T22:44:04.927Z,99.90
2023-06-19T22:46:33.032Z,99.90
2023-06-19T22:49:02.394Z,99.90
2023-06-19T22:51:30.361Z,99.90
2023-06-19T22:53:58.206Z,99.90
2023-06-19T22:56:26.485Z,99.90
2023-06-19T22:58:54.356Z,99.90
2023-06-19T23:01:26.789Z,99.90
2023-06-19T23:03:54.941Z,99.90
2023-06-19T23:06:24.648Z,99.90
2023-06-19T23:08:52.508Z,99.90
2023-06-19T23:11:20.425Z,99.90
2023-06-19T23:13:48.346Z,99.90
2023-06-19T23:16:16.292Z,99.90
2023-06-19T23:18:44.186Z,99.90
2023-06-19T23:21:12.106Z,99.90
2023-06-19T23:23:41.366Z,99.90
2023-06-19T23:26:09.354Z,99.90
2023-06-19T23:28:37.917Z,99.90
2023-06-19T23:31:05.881Z,99.90
2023-06-19T23:33:33.798Z,99.90
2023-06-19T23:36:01.976Z,99.90
2023-06-19T23:38:29.987Z,99.90
2023-06-19T23:40:59.861Z,99.90
2023-06-19T23:43:27.836Z,99.90
2023-06-19T23:45:55.787Z,99.90
2023-06-19T23:48:23.671Z,99.90
2023-06-19T23:50:51.712Z,99.90
2023-06-19T23:53:19.637Z,99.90
2023-06-19T23:55:47.715Z,99.90
2023-06-19T23:58:16.954Z,99.90
